Crystal City, Virginia
Current Conditions -  °F | °C
As of 8:52 PM on Monday 20 Oct 2014 (Local Time) from KDCA Reporting Station
Broken Clouds Broken Clouds  
Wind Chill: 62°   Ceiling: 18000
Heat Index: 62°   Visibility: 10mi
Dew Point: 46°   Wind: 10mph
Humidity: 56%   Direction: 180°S
Pressure: 29.97"   Gusts: NA
Location:  38.8565°N, 77.0512°W
Report Text: KDCA 210052Z 18009KT 10SM BKN180 17/08 A2997 RMK AO2 SLP148 T01670078
Loading
Personal Weather Stations






























Interactive Weather Map
Tropical Storm Tracking
New forecast layout! Learn more

10-Day Weather Forecast

Advertisements
Track Severe Weather on mobile